Time;durP1;ratioP1;P1;durP2;ratioP2;P2;SDS_P1;SDS_P2;PMS_P1;PMS_P2;Temp;Humidity;BMP_temperature;BMP_pressure;BME280_temperature;BME280_humidity;BME280_pressure;Samples;Min_cycle;Max_cycle;Signal;HPM_P1;HPM_P2
2023/10/13 00:02:24;;;;;;;11.40;6.80;;;;;;;7.93;88.93;100553.28;109203;276;39724;-66
2023/10/13 00:05:01;;;;;;;13.70;7.10;;;;;;;7.87;88.86;100557.08;109102;276;38226;-66
2023/10/13 00:07:41;;;;;;;15.30;7.80;;;;;;;7.82;88.78;100558.05;109121;276;38292;-69
2023/10/13 00:10:18;;;;;;;11.50;6.80;;;;;;;7.77;88.80;100561.12;109062;276;172854;-69
2023/10/13 00:13:05;;;;;;;14.10;7.20;;;;;;;7.74;88.62;100562.41;109090;276;38536;-69
2023/10/13 00:15:56;;;;;;;12.30;7.40;;;;;;;7.71;88.82;100561.98;109012;273;38456;-69
2023/10/13 00:18:41;;;;;;;11.50;7.50;;;;;;;7.66;88.81;100559.65;108453;273;902117;-69
2023/10/13 00:21:20;;;;;;;10.00;6.90;;;;;;;7.64;89.04;100563.16;109160;276;38987;-70
2023/10/13 00:23:57;;;;;;;12.10;7.20;;;;;;;7.63;89.13;100565.61;109183;276;38335;-70
2023/10/13 00:26:35;;;;;;;13.10;7.60;;;;;;;7.66;89.36;100567.81;109186;276;38254;-67
2023/10/13 00:29:17;;;;;;;12.90;7.90;;;;;;;7.66;89.45;100565.55;109121;276;38385;-69
2023/10/13 00:31:56;;;;;;;14.00;8.10;;;;;;;7.67;89.63;100563.61;109134;276;38360;-67
2023/10/13 00:34:39;;;;;;;13.80;8.40;;;;;;;7.62;89.38;100564.61;109091;276;38537;-67
2023/10/13 00:37:18;;;;;;;14.90;7.70;;;;;;;7.60;89.28;100564.48;109159;276;38396;-66
2023/10/13 00:39:58;;;;;;;10.90;7.80;;;;;;;7.55;89.05;100563.17;109167;276;38707;-66
2023/10/13 00:42:50;;;;;;;13.50;7.90;;;;;;;7.53;89.17;100572.98;109162;276;39436;-66
2023/10/13 00:45:31;;;;;;;16.40;8.90;;;;;;;7.52;89.65;100574.04;109126;276;38592;-68
2023/10/13 00:48:10;;;;;;;15.10;8.10;;;;;;;7.52;89.68;100579.92;109099;276;38221;-69
2023/10/13 00:50:51;;;;;;;14.50;8.40;;;;;;;7.51;89.69;100576.66;109144;276;38969;-69
2023/10/13 00:53:28;;;;;;;13.70;8.80;;;;;;;7.52;89.70;100581.66;109058;276;39205;-69
2023/10/13 00:56:07;;;;;;;13.50;8.40;;;;;;;7.52;89.64;100586.02;109111;276;38381;-69
2023/10/13 00:58:46;;;;;;;16.80;10.00;;;;;;;7.49;89.61;100583.30;109103;276;39342;-69
2023/10/13 01:01:32;;;;;;;12.50;8.40;;;;;;;7.44;89.42;100579.24;109165;276;38246;-68
2023/10/13 01:04:19;;;;;;;11.30;8.20;;;;;;;7.40;89.26;100586.95;109109;276;39300;-67
2023/10/13 01:06:59;;;;;;;13.90;9.00;;;;;;;7.36;88.85;100582.38;109116;276;40082;-67
2023/10/13 01:09:44;;;;;;;12.60;8.80;;;;;;;7.28;88.98;100579.58;109114;276;38972;-66
2023/10/13 01:12:26;;;;;;;15.10;9.70;;;;;;;7.27;89.07;100582.38;109065;276;38787;-68
2023/10/13 01:15:10;;;;;;;14.20;8.80;;;;;;;7.23;89.22;100586.30;109044;276;175580;-67
2023/10/13 01:17:48;;;;;;;12.90;8.20;;;;;;;7.20;89.09;100588.59;109187;276;38253;-67
2023/10/13 01:20:26;;;;;;;12.60;7.90;;;;;;;7.17;89.11;100584.66;109119;276;39907;-67
2023/10/13 01:23:18;;;;;;;13.00;8.30;;;;;;;7.17;89.08;100585.00;109163;276;38235;-69
2023/10/13 01:25:59;;;;;;;13.20;9.30;;;;;;;7.13;88.80;100587.88;109211;276;38899;-67
2023/10/13 01:28:50;;;;;;;11.00;8.10;;;;;;;7.07;88.56;100587.83;109189;276;38225;-67
2023/10/13 01:31:37;;;;;;;13.00;9.20;;;;;;;7.00;88.31;100592.46;109188;276;38236;-66
2023/10/13 01:34:13;;;;;;;11.60;8.20;;;;;;;6.96;88.24;100595.67;108950;277;38283;-67
2023/10/13 01:36:54;;;;;;;14.20;8.90;;;;;;;6.92;88.12;100592.45;109050;276;172870;-69
2023/10/13 01:39:33;;;;;;;13.40;9.10;;;;;;;6.86;87.89;100599.51;109108;276;38341;-69
2023/10/13 01:42:08;;;;;;;;;;;;;;;6.78;87.72;100594.45;109092;276;38638;-69
2023/10/13 01:44:45;;;;;;;15.50;9.90;;;;;;;6.62;87.54;100600.65;109094;276;38450;-71
2023/10/13 01:47:23;;;;;;;16.30;9.00;;;;;;;6.55;87.75;100598.71;109106;276;39887;-67
2023/10/13 01:50:13;;;;;;;13.10;8.40;;;;;;;6.48;87.73;100602.64;109072;276;38920;-66
2023/10/13 01:53:10;;;;;;;10.70;7.80;;;;;;;6.42;87.79;100601.88;109099;276;38353;-66
2023/10/13 01:55:56;;;;;;;12.30;8.20;;;;;;;6.38;87.76;100597.77;109096;276;38236;-69
2023/10/13 01:58:35;;;;;;;12.10;8.20;;;;;;;6.35;88.00;100587.27;109122;276;38124;-69
2023/10/13 02:01:21;;;;;;;11.00;7.40;;;;;;;6.31;87.84;100581.61;109110;276;38799;-69
2023/10/13 02:04:04;;;;;;;10.80;7.50;;;;;;;6.26;87.87;100578.92;108962;276;39283;-70
2023/10/13 02:06:43;;;;;;;11.20;7.20;;;;;;;6.21;87.84;100581.42;109177;276;38419;-67
2023/10/13 02:09:25;;;;;;;9.20;6.70;;;;;;;6.17;87.79;100584.79;109151;276;38165;-67
2023/10/13 02:12:03;;;;;;;10.60;7.40;;;;;;;6.14;87.77;100583.45;109153;276;39631;-67
2023/10/13 02:14:46;;;;;;;9.60;7.90;;;;;;;6.12;87.92;100590.06;109154;276;38594;-67
2023/10/13 02:17:28;;;;;;;12.00;8.70;;;;;;;6.09;87.74;100587.19;109131;276;38288;-67
2023/10/13 02:20:15;;;;;;;10.90;7.70;;;;;;;6.01;87.48;100588.69;109168;276;38162;-67
2023/10/13 02:22:56;;;;;;;11.40;8.00;;;;;;;5.93;87.36;100588.64;109127;276;38595;-69
2023/10/13 02:25:46;;;;;;;11.30;7.30;;;;;;;5.88;87.59;100594.40;109114;276;38009;-68
2023/10/13 02:28:33;;;;;;;13.00;7.40;;;;;;;5.86;87.70;100600.82;109109;276;38729;-67
2023/10/13 02:31:13;;;;;;;12.80;7.90;;;;;;;5.85;87.91;100599.13;109134;276;38892;-67
2023/10/13 02:33:59;;;;;;;10.70;7.40;;;;;;;5.81;87.70;100598.14;109072;276;38450;-66
2023/10/13 02:36:48;;;;;;;10.60;7.20;;;;;;;5.76;87.66;100595.27;108427;276;905053;-69
2023/10/13 02:39:27;;;;;;;10.70;6.90;;;;;;;5.72;87.59;100598.10;109124;276;38723;-67
2023/10/13 02:42:06;;;;;;;11.10;6.90;;;;;;;5.71;87.87;100598.80;109113;276;38230;-70
2023/10/13 02:44:46;;;;;;;11.30;7.30;;;;;;;5.71;87.93;100603.84;109124;276;38898;-69
2023/10/13 02:47:27;;;;;;;9.60;7.60;;;;;;;5.69;87.70;100598.32;108617;276;649651;-67
2023/10/13 02:50:13;;;;;;;11.60;7.40;;;;;;;5.62;87.58;100598.75;109098;276;38425;-67
2023/10/13 02:52:55;;;;;;;11.40;6.90;;;;;;;5.55;87.58;100592.98;109176;276;39536;-69
2023/10/13 02:55:31;;;;;;;;;;;;;;;5.52;87.62;100594.41;109181;276;39314;-69
2023/10/13 02:58:15;;;;;;;11.90;7.00;;;;;;;5.44;87.86;100600.04;108912;276;175336;-67
2023/10/13 03:00:51;;;;;;;12.20;7.60;;;;;;;5.46;88.22;100598.29;109199;276;38727;-69
2023/10/13 03:03:29;;;;;;;11.10;7.80;;;;;;;5.46;88.27;100595.87;109160;276;38233;-69
2023/10/13 03:06:06;;;;;;;10.40;7.20;;;;;;;5.42;88.15;100592.98;109142;276;38138;-67
2023/10/13 03:08:42;;;;;;;13.00;8.10;;;;;;;5.39;88.11;100598.39;109129;276;38652;-67
2023/10/13 03:11:32;;;;;;;9.90;7.10;;;;;;;5.34;87.81;100593.25;109155;276;38832;-67
2023/10/13 03:14:30;;;;;;;10.90;6.70;;;;;;;5.29;88.17;100583.28;109088;276;38482;-67
2023/10/13 03:17:08;;;;;;;10.10;6.80;;;;;;;5.32;88.46;100584.80;109118;276;39382;-70
2023/10/13 03:19:49;;;;;;;10.30;7.50;;;;;;;5.33;88.49;100581.85;109096;276;38952;-71
2023/10/13 03:22:31;;;;;;;11.20;7.50;;;;;;;5.35;88.73;100583.73;109133;276;38857;-69
2023/10/13 03:25:13;;;;;;;11.50;8.00;;;;;;;5.37;89.04;100582.16;109086;276;38491;-66
2023/10/13 03:28:04;;;;;;;10.90;7.70;;;;;;;5.42;89.34;100582.95;109094;276;38386;-68
2023/10/13 03:30:52;;;;;;;9.80;8.20;;;;;;;5.49;89.55;100582.85;109070;276;39625;-69
2023/10/13 03:33:32;;;;;;;9.70;7.40;;;;;;;5.54;89.79;100575.33;109139;276;39502;-69
2023/10/13 03:36:07;;;;;;;11.10;7.80;;;;;;;5.62;90.13;100579.38;109153;276;38597;-70
2023/10/13 03:38:44;;;;;;;10.00;8.50;;;;;;;5.63;89.83;100588.54;109134;276;38269;-69
2023/10/13 03:41:24;;;;;;;12.90;9.00;;;;;;;5.64;89.81;100592.84;109148;276;39601;-70
2023/10/13 03:44:07;;;;;;;10.60;8.70;;;;;;;5.65;89.58;100600.45;109164;276;38447;-70
2023/10/13 03:46:42;;;;;;;12.20;8.20;;;;;;;5.64;89.50;100600.45;109200;276;38657;-69
2023/10/13 03:49:21;;;;;;;10.20;8.40;;;;;;;5.63;89.33;100593.20;109143;276;39621;-69
2023/10/13 03:51:57;;;;;;;16.90;8.70;;;;;;;5.57;88.94;100584.98;109166;276;39039;-66
2023/10/13 03:54:40;;;;;;;15.70;8.30;;;;;;;5.49;88.75;100581.82;109106;276;38298;-67
2023/10/13 03:57:16;;;;;;;12.30;8.00;;;;;;;5.44;88.79;100582.75;109091;276;39625;-70
2023/10/13 03:59:51;;;;;;;9.50;7.90;;;;;;;5.40;88.93;100595.25;109067;276;39033;-70
2023/10/13 04:02:32;;;;;;;10.30;7.70;;;;;;;5.43;89.26;100600.94;109168;276;38185;-67
2023/10/13 04:05:09;;;;;;;11.00;8.60;;;;;;;5.45;89.46;100606.61;109103;276;38530;-67
2023/10/13 04:16:50;;;;;;;10.60;7.00;;;;;;;5.42;89.69;100606.65;109113;276;38491;-67
2023/10/13 04:19:28;;;;;;;;;;;;;;;5.42;89.74;100598.86;109083;276;38526;-67
2023/10/13 04:22:14;;;;;;;10.20;7.30;;;;;;;5.37;89.72;100593.39;109151;276;38905;-71
2023/10/13 04:28:15;;;;;;;11.40;7.20;;;;;;;5.35;89.64;100590.83;109183;276;39512;-69
2023/10/13 04:30:58;;;;;;;10.80;7.20;;;;;;;5.29;89.49;100589.85;109222;276;38732;-69
2023/10/13 04:33:43;;;;;;;10.20;7.20;;;;;;;5.26;89.47;100590.25;109166;276;38136;-70
2023/10/13 04:36:36;;;;;;;8.00;6.20;;;;;;;5.26;89.61;100588.86;109180;276;38281;-71
2023/10/13 04:39:29;;;;;;;8.60;6.90;;;;;;;5.28;89.92;100592.98;109149;276;38358;-70
2023/10/13 04:42:13;;;;;;;9.90;7.20;;;;;;;5.30;90.06;100596.60;109140;276;38140;-69
2023/10/13 04:44:55;;;;;;;9.90;6.70;;;;;;;5.31;90.38;100597.09;109064;276;38576;-69
2023/10/13 04:47:41;;;;;;;10.10;6.30;;;;;;;5.34;90.38;100594.12;109140;276;38391;-67
2023/10/13 04:50:27;;;;;;;9.70;6.20;;;;;;;5.36;90.27;100594.97;108928;276;38908;-69
2023/10/13 04:53:27;;;;;;;10.30;7.20;;;;;;;5.38;90.55;100590.27;109125;276;38141;-67
2023/10/13 04:59:35;;;;;;;12.80;7.20;;;;;;;5.44;90.65;100586.90;109121;276;38887;-69
2023/10/13 05:48:41;;;;;;;12.10;7.10;;;;;;;5.93;91.75;100631.06;108956;276;39472;-69
2023/10/13 05:51:43;;;;;;;9.30;6.30;;;;;;;5.98;92.08;100625.11;109155;276;38477;-70
2023/10/13 06:28:49;;;;;;;11.00;6.50;;;;;;;7.82;94.37;100678.08;109171;276;38475;-69
2023/10/13 06:31:29;;;;;;;8.80;6.00;;;;;;;7.82;93.96;100671.98;109204;276;38283;-67
2023/10/13 06:34:07;;;;;;;11.00;6.90;;;;;;;7.84;93.75;100669.34;109044;276;38647;-69
2023/10/13 06:36:48;;;;;;;10.20;6.00;;;;;;;7.86;93.56;100668.26;109120;276;38692;-69
2023/10/13 06:42:14;;;;;;;10.60;6.60;;;;;;;7.96;93.91;100660.21;109152;276;39686;-70
2023/10/13 06:44:51;;;;;;;9.00;6.40;;;;;;;8.11;94.59;100656.06;109128;276;38501;-69
2023/10/13 06:47:27;;;;;;;10.70;6.70;;;;;;;8.32;95.41;100657.99;109143;276;38120;-68
2023/10/13 06:50:15;;;;;;;13.10;7.50;;;;;;;8.56;96.43;100658.48;109165;276;38257;-67
2023/10/13 06:52:56;;;;;;;11.70;6.60;;;;;;;8.84;97.49;100662.46;109129;276;38186;-68
2023/10/13 06:55:47;;;;;;;10.70;6.80;;;;;;;9.11;98.12;100659.64;109072;276;38564;-69
2023/10/13 06:58:24;;;;;;;12.40;6.40;;;;;;;9.38;98.31;100663.59;109076;276;39601;-68
2023/10/13 07:01:07;;;;;;;11.40;6.50;;;;;;;9.64;98.57;100663.01;109091;276;38349;-69
2023/10/13 07:03:52;;;;;;;10.30;6.80;;;;;;;9.90;98.86;100660.82;109090;276;38779;-69
2023/10/13 07:06:28;;;;;;;12.40;7.50;;;;;;;10.16;99.04;100654.97;109135;276;38245;-70
2023/10/13 07:09:15;;;;;;;11.80;7.10;;;;;;;10.38;98.75;100650.80;109122;276;38613;-70
2023/10/13 07:11:56;;;;;;;12.70;6.70;;;;;;;10.59;98.51;100646.08;109162;276;38899;-68
2023/10/13 07:14:51;;;;;;;10.60;6.00;;;;;;;10.79;98.20;100648.57;109115;276;38219;-68
2023/10/13 07:17:38;;;;;;;10.20;6.00;;;;;;;10.99;98.19;100654.15;109168;276;38340;-70
2023/10/13 07:20:23;;;;;;;14.40;7.00;;;;;;;11.19;98.08;100652.20;108418;276;898823;-70
2023/10/13 07:23:03;;;;;;;15.20;6.40;;;;;;;11.39;98.13;100654.09;109174;276;39043;-74
2023/10/13 07:25:40;;;;;;;10.70;6.30;;;;;;;11.56;97.72;100656.08;109162;276;39114;-74
2023/10/13 07:28:15;;;;;;;13.50;6.40;;;;;;;11.74;97.21;100654.38;109136;276;39489;-73
2023/10/13 07:31:11;;;;;;;11.30;5.70;;;;;;;11.87;96.77;100646.89;109117;276;38835;-74
2023/10/13 07:33:47;;;;;;;12.00;5.70;;;;;;;12.01;96.11;100653.16;109123;276;38140;-70
2023/10/13 07:36:27;;;;;;;11.30;5.60;;;;;;;12.11;95.67;100657.48;109146;276;38456;-71
2023/10/13 07:39:20;;;;;;;14.50;5.60;;;;;;;12.22;95.17;100654.59;108953;276;38713;-73
2023/10/13 07:42:03;;;;;;;11.10;6.00;;;;;;;12.32;94.47;100654.88;109133;276;38237;-72
2023/10/13 07:44:45;;;;;;;13.00;6.00;;;;;;;12.38;94.05;100653.75;109116;276;39618;-71
2023/10/13 07:47:26;;;;;;;16.60;6.30;;;;;;;12.45;94.00;100651.56;109143;276;38421;-71
2023/10/13 07:50:06;;;;;;;;;;;;;;;12.53;93.60;100645.98;109146;276;39410;-71
2023/10/13 07:52:58;;;;;;;14.00;6.30;;;;;;;12.58;93.30;100641.06;109078;276;39413;-69
2023/10/13 07:55:44;;;;;;;11.20;6.00;;;;;;;12.63;92.76;100638.05;109116;276;38248;-70
2023/10/13 07:58:20;;;;;;;13.10;5.40;;;;;;;12.69;92.41;100640.75;109150;276;38889;-72
2023/10/13 08:01:07;;;;;;;10.80;5.50;;;;;;;12.73;91.82;100635.32;108993;276;38930;-75
2023/10/13 08:04:04;;;;;;;12.40;5.80;;;;;;;12.75;91.22;100626.48;109086;276;38376;-75
2023/10/13 08:06:43;;;;;;;12.70;5.50;;;;;;;12.79;90.73;100624.40;109170;276;38450;-73
2023/10/13 08:09:38;;;;;;;11.00;5.20;;;;;;;12.83;91.08;100618.07;109213;276;38170;-73
2023/10/13 08:12:21;;;;;;;10.30;5.20;;;;;;;12.92;91.14;100617.35;109165;276;38573;-74
2023/10/13 08:15:12;;;;;;;10.40;5.10;;;;;;;13.00;90.87;100615.26;109167;276;38154;-74
2023/10/13 08:17:51;;;;;;;14.90;4.80;;;;;;;13.08;90.38;100611.04;109100;276;38215;-74
2023/10/13 08:20:40;;;;;;;12.70;4.70;;;;;;;13.19;90.14;100610.06;109110;276;38957;-73
2023/10/13 08:23:34;;;;;;;9.70;4.20;;;;;;;13.34;89.99;100609.39;108939;276;40274;-74
2023/10/13 08:29:49;;;;;;;9.80;3.90;;;;;;;13.46;88.11;100605.68;109078;276;38171;-75
2023/10/13 08:32:19;;;;;;;9.10;4.50;;;;;;;13.46;87.51;100611.11;108961;276;38032;-75
2023/10/13 08:35:10;;;;;;;12.60;4.30;;;;;;;13.48;87.27;100610.70;109125;276;39310;-76
2023/10/13 08:38:04;;;;;;;15.20;3.80;;;;;;;13.48;86.64;100607.00;109209;276;39340;-76
2023/10/13 08:41:25;;;;;;;12.80;3.80;;;;;;;13.45;85.91;100607.31;109164;276;39494;-74
2023/10/13 08:43:44;;;;;;;12.80;3.70;;;;;;;13.44;85.99;100607.35;109091;276;39888;-74
2023/10/13 08:46:29;;;;;;;9.00;4.20;;;;;;;13.48;86.30;100608.75;109222;276;38186;-74
2023/10/13 08:49:13;;;;;;;7.70;3.90;;;;;;;13.48;86.01;100609.44;109138;276;38800;-75
2023/10/13 08:51:50;;;;;;;11.70;4.30;;;;;;;13.52;86.09;100611.01;108977;276;39877;-76
2023/10/13 08:54:45;;;;;;;10.60;4.20;;;;;;;13.56;86.11;100605.89;109227;276;38280;-76
2023/10/13 08:57:34;;;;;;;11.90;5.40;;;;;;;13.58;85.78;100606.52;108990;276;40476;-74
2023/10/13 09:00:55;;;;;;;12.60;5.50;;;;;;;13.58;85.69;100601.06;108992;276;40142;-74
2023/10/13 09:03:38;;;;;;;10.70;5.70;;;;;;;13.62;85.88;100601.97;108965;277;38427;-76
2023/10/13 09:06:19;;;;;;;14.30;5.80;;;;;;;13.63;85.73;100601.36;109185;276;38323;-77
2023/10/13 09:09:06;;;;;;;14.50;6.30;;;;;;;13.67;85.53;100601.20;108957;276;39336;-77
2023/10/13 09:11:53;;;;;;;14.00;7.40;;;;;;;13.70;85.33;100595.63;109131;276;39215;-77
2023/10/13 09:14:36;;;;;;;14.70;6.90;;;;;;;13.75;85.59;100592.95;109057;276;39502;-75
2023/10/13 09:17:34;;;;;;;14.60;7.30;;;;;;;13.81;85.73;100590.00;109015;276;39726;-75
2023/10/13 09:20:42;;;;;;;15.70;7.40;;;;;;;13.94;86.04;100590.59;109211;276;38475;-75
2023/10/13 09:23:25;;;;;;;12.90;7.30;;;;;;;14.10;85.65;100587.36;109037;276;38629;-77
2023/10/13 09:26:12;;;;;;;16.30;8.50;;;;;;;14.24;85.39;100585.44;109087;276;39403;-76
2023/10/13 09:28:54;;;;;;;12.70;7.90;;;;;;;14.39;85.11;100581.73;109130;276;39182;-76
2023/10/13 09:31:33;;;;;;;14.10;7.30;;;;;;;14.51;84.22;100581.65;109054;276;39336;-76
2023/10/13 09:34:10;;;;;;;16.60;8.40;;;;;;;14.60;83.85;100580.33;109031;276;38364;-75
2023/10/13 09:36:55;;;;;;;13.60;7.90;;;;;;;14.68;84.21;100582.36;109076;276;39436;-76
2023/10/13 09:39:44;;;;;;;15.60;7.60;;;;;;;14.76;83.46;100581.11;109191;276;37987;-76
2023/10/13 09:42:23;;;;;;;17.10;8.00;;;;;;;14.83;83.10;100579.65;108991;276;38412;-76
2023/10/13 09:45:04;;;;;;;14.00;7.70;;;;;;;14.90;83.32;100576.84;108965;276;38579;-76
2023/10/13 09:47:40;;;;;;;14.20;8.20;;;;;;;15.02;83.40;100571.27;109180;276;38629;-75
2023/10/13 09:50:24;;;;;;;15.80;8.30;;;;;;;15.14;83.33;100559.59;109174;276;38504;-75
2023/10/13 09:53:00;;;;;;;15.30;7.80;;;;;;;15.26;82.91;100556.80;109008;276;39938;-75
2023/10/13 09:55:39;;;;;;;17.80;8.40;;;;;;;15.42;82.70;100553.42;108978;276;38584;-75
2023/10/13 09:58:15;;;;;;;15.10;9.30;;;;;;;15.60;82.04;100553.17;109089;276;38304;-75
2023/10/13 10:01:07;;;;;;;17.70;8.30;;;;;;;15.72;81.06;100552.35;109130;276;39835;-74
2023/10/13 10:04:07;;;;;;;21.50;9.20;;;;;;;15.78;80.33;100547.81;109060;276;39618;-74
2023/10/13 10:06:49;;;;;;;16.60;8.10;;;;;;;15.84;80.55;100542.14;109085;276;38174;-74
2023/10/13 10:09:37;;;;;;;39.00;11.10;;;;;;;15.98;80.74;100543.65;109013;276;39686;-75
2023/10/13 10:12:35;;;;;;;17.30;8.20;;;;;;;16.12;80.47;100538.09;108963;276;38424;-74
2023/10/13 10:15:30;;;;;;;32.60;9.40;;;;;;;16.26;79.82;100534.64;109115;276;39660;-74
2023/10/13 10:18:05;;;;;;;41.80;10.50;;;;;;;16.33;79.35;100535.65;109152;276;38223;-75
2023/10/13 10:20:46;;;;;;;18.20;7.70;;;;;;;16.36;78.74;100534.58;109177;276;38325;-76
2023/10/13 10:23:36;;;;;;;17.20;8.10;;;;;;;16.41;78.87;100521.23;109209;276;38340;-76
2023/10/13 10:26:21;;;;;;;24.90;9.50;;;;;;;16.49;78.88;100512.27;109227;276;39025;-76
2023/10/13 10:28:56;;;;;;;17.90;8.60;;;;;;;16.59;78.98;100508.72;109189;276;38236;-75
2023/10/13 10:31:44;;;;;;;17.00;7.60;;;;;;;16.68;78.69;100507.80;109184;276;39759;-75
2023/10/13 10:34:24;;;;;;;13.10;8.00;;;;;;;16.82;78.72;100508.03;109211;276;38176;-76
2023/10/13 10:37:00;;;;;;;15.00;8.10;;;;;;;16.93;78.18;100501.52;109241;276;38494;-76
2023/10/13 10:39:49;;;;;;;19.00;8.30;;;;;;;16.97;77.60;100501.48;109204;276;38428;-76
2023/10/13 10:42:29;;;;;;;15.40;7.40;;;;;;;16.98;77.54;100500.70;108506;276;895772;-75
2023/10/13 10:45:13;;;;;;;11.70;7.50;;;;;;;16.95;76.84;100492.96;109210;276;39599;-75
2023/10/13 10:48:17;;;;;;;15.10;8.20;;;;;;;16.89;76.39;100488.53;108651;276;655672;-74
2023/10/13 10:51:06;;;;;;;14.10;7.80;;;;;;;16.85;76.52;100480.02;109182;276;38266;-77
2023/10/13 10:53:46;;;;;;;15.20;8.00;;;;;;;16.84;76.33;100472.29;109049;276;38630;-76
2023/10/13 10:56:25;;;;;;;14.60;8.10;;;;;;;16.85;76.49;100470.70;109132;276;39202;-77
2023/10/13 10:59:04;;;;;;;14.00;7.30;;;;;;;16.89;76.41;100468.47;109075;276;38990;-75
2023/10/13 11:01:54;;;;;;;15.60;8.50;;;;;;;16.89;76.20;100465.48;109017;276;38171;-73
2023/10/13 11:04:33;;;;;;;16.10;8.00;;;;;;;16.90;76.48;100461.03;109159;276;40114;-74
2023/10/13 11:07:22;;;;;;;11.00;7.50;;;;;;;16.95;76.76;100458.20;109221;276;38867;-77
2023/10/13 11:10:20;;;;;;;13.40;8.00;;;;;;;17.05;76.87;100460.25;109169;276;38214;-76
2023/10/13 11:13:21;;;;;;;17.40;6.90;;;;;;;17.16;77.13;100455.33;109174;276;39103;-77
2023/10/13 11:16:07;;;;;;;15.20;7.60;;;;;;;17.25;76.59;100449.80;109126;276;39755;-76
2023/10/13 11:18:47;;;;;;;14.60;8.00;;;;;;;17.33;76.38;100442.41;109232;276;39414;-76
2023/10/13 11:21:29;;;;;;;15.70;8.10;;;;;;;17.39;76.60;100438.28;109226;276;38287;-76
2023/10/13 11:24:11;;;;;;;16.00;6.80;;;;;;;17.44;76.26;100431.29;109177;276;38220;-71
2023/10/13 11:26:51;;;;;;;12.20;7.20;;;;;;;17.48;76.25;100427.80;109062;276;38226;-78
2023/10/13 11:29:39;;;;;;;12.60;6.80;;;;;;;17.55;76.40;100427.55;109153;276;38225;-76
2023/10/13 11:32:20;;;;;;;16.90;7.40;;;;;;;17.62;76.16;100424.77;109134;276;38281;-74
2023/10/13 11:34:54;;;;;;;;;;;;;;;17.61;75.42;100413.60;109044;276;39184;-75
2023/10/13 11:37:43;;;;;;;13.50;7.20;;;;;;;17.54;75.45;100406.11;109028;276;39616;-74
2023/10/13 11:40:42;;;;;;;14.20;7.00;;;;;;;17.48;75.77;100407.52;108565;276;895886;-75
2023/10/13 11:43:18;;;;;;;16.70;7.10;;;;;;;17.45;75.78;100407.75;109029;276;38733;-75
2023/10/13 11:46:12;;;;;;;13.10;7.00;;;;;;;17.39;75.78;100407.96;109241;276;38249;-74
2023/10/13 11:49:05;;;;;;;15.40;7.30;;;;;;;17.37;76.14;100400.70;109128;276;38237;-74
2023/10/13 11:51:39;;;;;;;12.70;6.70;;;;;;;17.39;76.22;100398.99;109215;276;39335;-74
2023/10/13 11:54:17;;;;;;;11.10;7.10;;;;;;;17.43;76.45;100397.61;109154;276;38686;-73
2023/10/13 11:56:58;;;;;;;11.10;7.00;;;;;;;17.52;76.52;100400.60;109178;276;38250;-73
2023/10/13 11:59:36;;;;;;;11.80;6.40;;;;;;;17.60;76.53;100391.80;108980;276;38144;-76
2023/10/13 12:05:11;;;;;;;11.80;6.60;;;;;;;17.78;76.48;100384.94;109175;276;38464;-75
2023/10/13 12:07:52;;;;;;;13.10;7.10;;;;;;;17.87;76.07;100382.02;109207;276;38489;-74
2023/10/13 12:10:49;;;;;;;11.10;7.00;;;;;;;17.94;75.91;100379.09;109137;276;38324;-74
2023/10/13 12:13:28;;;;;;;10.40;6.10;;;;;;;17.96;75.80;100375.90;109113;276;38257;-73
2023/10/13 12:16:12;;;;;;;12.70;7.00;;;;;;;17.95;75.52;100377.03;109142;276;39340;-70
2023/10/13 12:18:53;;;;;;;11.60;7.00;;;;;;;17.94;75.30;100374.86;109111;276;38157;-75
2023/10/13 12:21:27;;;;;;;12.40;7.20;;;;;;;17.94;75.53;100373.09;108976;276;38560;-72
2023/10/13 12:24:22;;;;;;;13.50;6.90;;;;;;;17.95;75.47;100364.55;109020;276;38493;-72
2023/10/13 12:27:02;;;;;;;12.20;6.80;;;;;;;17.92;75.51;100360.89;109225;276;38844;-74
2023/10/13 12:29:46;;;;;;;12.70;6.30;;;;;;;17.91;75.64;100351.55;109125;276;38611;-73
2023/10/13 12:32:26;;;;;;;9.20;6.70;;;;;;;17.93;75.67;100342.96;109017;276;38847;-73
2023/10/13 12:35:29;;;;;;;13.70;5.90;;;;;;;17.95;75.90;100340.18;109133;276;38178;-74
2023/10/13 12:38:26;;;;;;;10.30;6.30;;;;;;;17.98;75.94;100334.33;109040;276;38198;-75
2023/10/13 12:49:57;;;;;;;13.10;6.20;;;;;;;18.00;75.72;100323.78;109188;276;39351;-74
2023/10/13 12:52:33;;;;;;;14.70;6.00;;;;;;;17.97;75.65;100323.06;109140;276;39181;-75
2023/10/13 12:55:13;;;;;;;10.70;6.80;;;;;;;17.93;75.53;100321.79;109159;276;39562;-72
2023/10/13 12:57:50;;;;;;;13.10;7.10;;;;;;;17.88;75.64;100314.75;109133;276;38478;-72
2023/10/13 13:00:33;;;;;;;13.00;6.70;;;;;;;17.83;75.80;100313.30;109086;276;38391;-73
2023/10/13 13:03:12;;;;;;;13.20;7.20;;;;;;;17.78;76.31;100311.31;109104;276;38774;-73
2023/10/13 13:05:48;;;;;;;11.60;7.60;;;;;;;17.77;76.43;100315.65;109100;276;38573;-73
2023/10/13 13:08:25;;;;;;;18.50;7.60;;;;;;;17.76;76.64;100319.05;109172;276;38278;-72
2023/10/13 13:11:01;;;;;;;13.80;6.50;;;;;;;17.78;76.98;100313.81;109116;276;38484;-73
2023/10/13 13:13:37;;;;;;;11.60;6.80;;;;;;;17.82;77.22;100315.33;109146;276;38451;-72
2023/10/13 13:16:18;;;;;;;10.90;7.60;;;;;;;17.85;77.35;100317.39;109147;276;39456;-72
2023/10/13 13:18:57;;;;;;;10.00;6.80;;;;;;;17.86;77.46;100307.27;109114;276;39779;-73
2023/10/13 13:21:31;;;;;;;12.90;7.10;;;;;;;17.88;77.56;100304.50;109077;276;175037;-72
2023/10/13 13:24:10;;;;;;;13.40;6.90;;;;;;;17.90;77.75;100302.20;109087;276;38185;-72
2023/10/13 13:26:48;;;;;;;11.90;6.50;;;;;;;17.95;78.00;100302.09;109186;276;38444;-72
2023/10/13 13:29:26;;;;;;;14.80;7.70;;;;;;;17.98;77.97;100301.98;109151;276;39176;-73
2023/10/13 13:32:01;;;;;;;14.50;7.50;;;;;;;17.99;78.06;100291.52;109017;276;38646;-75
2023/10/13 13:34:38;;;;;;;17.30;7.20;;;;;;;18.02;78.07;100292.17;109215;276;38163;-75
2023/10/13 13:37:22;;;;;;;12.30;7.30;;;;;;;18.04;78.01;100286.39;109229;276;38342;-76
2023/10/13 13:40:13;;;;;;;13.20;7.30;;;;;;;18.07;78.14;100278.77;109152;276;39050;-73
2023/10/13 13:42:57;;;;;;;12.90;7.20;;;;;;;18.10;78.08;100273.64;109201;276;38249;-75
2023/10/13 13:45:41;;;;;;;14.90;7.50;;;;;;;18.09;78.09;100264.70;109066;276;38188;-74
2023/10/13 13:48:16;;;;;;;11.40;7.20;;;;;;;18.12;78.20;100266.46;109101;276;38840;-72
2023/10/13 13:50:55;;;;;;;11.50;7.70;;;;;;;18.16;78.22;100263.20;109181;276;38682;-75
2023/10/13 13:53:34;;;;;;;11.90;7.40;;;;;;;18.19;78.32;100268.08;108959;276;38732;-76
2023/10/13 13:56:15;;;;;;;14.60;7.10;;;;;;;18.21;78.22;100268.43;108967;276;38431;-72
2023/10/13 13:58:48;;;;;;;;;;;;;;;18.23;78.23;100253.81;109110;276;39560;-72
2023/10/13 14:01:25;;;;;;;12.50;7.20;;;;;;;18.20;78.34;100252.77;109103;276;38258;-74
2023/10/13 14:04:02;;;;;;;12.80;6.70;;;;;;;18.22;78.39;100246.47;109162;276;38359;-73
2023/10/13 14:06:42;;;;;;;15.30;7.80;;;;;;;18.22;78.34;100242.20;109202;276;38467;-74
2023/10/13 14:09:32;;;;;;;10.80;6.90;;;;;;;18.22;78.48;100238.66;109099;276;38688;-73
2023/10/13 14:15:01;;;;;;;12.20;6.70;;;;;;;18.25;78.57;100239.00;109193;276;38299;-75
2023/10/13 14:17:35;;;;;;;12.50;6.90;;;;;;;18.28;78.61;100231.02;109178;276;38456;-73
2023/10/13 14:20:18;;;;;;;11.80;7.40;;;;;;;18.31;78.60;100231.69;109191;276;38416;-74
2023/10/13 14:22:52;;;;;;;13.90;7.80;;;;;;;18.31;78.64;100229.59;109093;276;171891;-72
2023/10/13 14:25:37;;;;;;;15.80;7.90;;;;;;;18.30;78.69;100227.16;109165;276;38156;-73
2023/10/13 14:28:17;;;;;;;11.40;7.10;;;;;;;18.31;78.71;100226.20;109158;276;38610;-72
2023/10/13 14:30:51;;;;;;;9.70;7.10;;;;;;;18.33;78.90;100225.77;109013;276;171817;-75
2023/10/13 14:33:28;;;;;;;14.30;7.90;;;;;;;18.35;78.78;100225.45;109102;276;38169;-77